Airport ICAO


14:37 UTC

14°C

Clear skies


An affordable passengers' Moving Map for your aircraft. Made for the iPad and the iPhone
More information here

LFLL Saint Exupery


Lyon FRANCE   VFR CAVOK


METAR LFLL 241430Z 19020KT CAVOK 14/08 Q1016 NOSIG 0h07min

TAF LFLL 241100Z 2412/2518 17015KT CAVOK TEMPO 2412/2414 18020G30KT BECMG 2423/2503 20020G30KT 7000 -RA SCT030 OVC060 TEMPO 2504/2509 3000 RA BECMG 2505/2507 33010KT BKN012 OVC020 BECMG 2509/2511 9999 NSW SCT020TCU BKN025 BECMG 2512/2514 SCT040 3h37min





NOTAMS

OPEN